createdAt,value
2023-03-19T00:00:57.114Z,8.03
2023-03-19T00:03:25.112Z,8.08
2023-03-19T00:05:53.987Z,8.06
2023-03-19T00:08:23.795Z,7.87
2023-03-19T00:10:52.114Z,7.99
2023-03-19T00:13:20.306Z,8.07
2023-03-19T00:15:48.419Z,8.06
2023-03-19T00:18:16.649Z,8.08
2023-03-19T00:20:44.981Z,8.07
2023-03-19T00:23:12.916Z,7.84
2023-03-19T00:25:42.193Z,8.03
2023-03-19T00:28:10.360Z,8.12
2023-03-19T00:30:38.304Z,8.12
2023-03-19T00:33:06.228Z,8.07
2023-03-19T00:35:34.454Z,8.06
2023-03-19T00:38:03.017Z,8.05
2023-03-19T00:40:30.930Z,8.04
2023-03-19T00:43:00.358Z,8.03
2023-03-19T00:45:30.590Z,8.00
2023-03-19T00:47:58.828Z,7.98
2023-03-19T00:50:27.173Z,7.98
2023-03-19T00:52:55.352Z,7.97
2023-03-19T00:55:23.236Z,7.99
2023-03-19T00:57:51.308Z,8.01
2023-03-19T01:00:21.741Z,8.02
2023-03-19T01:02:49.665Z,8.03
2023-03-19T01:05:17.667Z,8.06
2023-03-19T01:07:45.684Z,8.03
2023-03-19T01:10:13.883Z,8.03
2023-03-19T01:12:41.908Z,8.02
2023-03-19T01:15:11.013Z,7.75
2023-03-19T01:17:40.350Z,7.87
2023-03-19T01:20:12.994Z,7.93
2023-03-19T01:22:41.578Z,7.94
2023-03-19T01:25:11.302Z,7.91
2023-03-19T01:27:39.326Z,7.89
2023-03-19T01:30:09.309Z,7.86
2023-03-19T01:32:37.427Z,7.86
2023-03-19T01:35:07.775Z,7.84
2023-03-19T01:37:35.693Z,7.91
2023-03-19T01:40:04.051Z,7.92
2023-03-19T01:42:32.035Z,7.91
2023-03-19T01:45:00.529Z,7.89
2023-03-19T01:47:32.943Z,7.66
2023-03-19T01:50:01.047Z,7.87
2023-03-19T01:52:34.550Z,7.83
2023-03-19T01:55:05.017Z,7.77
2023-03-19T01:57:33.894Z,7.53
2023-03-19T02:00:05.166Z,7.51
2023-03-19T02:02:35.095Z,7.72
2023-03-19T02:05:06.745Z,7.84
2023-03-19T02:07:38.446Z,7.85
2023-03-19T02:10:08.299Z,7.85
2023-03-19T02:12:36.922Z,7.79
2023-03-19T02:15:05.767Z,7.76
2023-03-19T02:17:33.913Z,7.80
2023-03-19T02:20:08.691Z,7.79
2023-03-19T02:22:42.765Z,7.67
2023-03-19T02:25:15.189Z,7.72
2023-03-19T02:27:44.988Z,7.73
2023-03-19T02:30:21.442Z,7.79
2023-03-19T02:32:49.405Z,7.71
2023-03-19T02:35:17.421Z,7.71
2023-03-19T02:37:45.409Z,7.65
2023-03-19T02:40:19.487Z,7.28
2023-03-19T02:42:48.802Z,7.44
2023-03-19T02:45:17.147Z,7.49
2023-03-19T02:47:45.096Z,7.49
2023-03-19T02:50:13.535Z,7.31
2023-03-19T02:52:41.660Z,7.30
2023-03-19T02:55:09.916Z,7.26
2023-03-19T02:57:37.851Z,7.08
2023-03-19T03:00:09.132Z,7.15
2023-03-19T03:02:37.250Z,7.06
2023-03-19T03:05:06.527Z,6.99
2023-03-19T03:07:34.613Z,6.91
2023-03-19T03:10:02.546Z,6.80
2023-03-19T03:12:30.472Z,6.69
2023-03-19T03:14:58.388Z,6.51
2023-03-19T03:17:28.178Z,6.41
2023-03-19T03:19:56.083Z,6.31
2023-03-19T03:22:24.353Z,6.16
2023-03-19T03:24:52.367Z,6.08
2023-03-19T03:27:20.281Z,5.97
2023-03-19T03:29:48.808Z,5.87
2023-03-19T03:32:17.315Z,5.83
2023-03-19T03:34:47.289Z,5.77
2023-03-19T03:37:15.348Z,5.60
2023-03-19T03:39:43.331Z,5.64
2023-03-19T03:42:11.388Z,5.55
2023-03-19T03:44:39.317Z,5.61
2023-03-19T03:47:07.585Z,5.59
2023-03-19T03:49:35.562Z,5.63
2023-03-19T03:52:04.952Z,5.60
2023-03-19T03:54:33.127Z,5.52
2023-03-19T03:57:03.298Z,5.43
2023-03-19T03:59:31.701Z,5.21
2023-03-19T04:01:59.991Z,5.13
2023-03-19T04:04:28.134Z,4.90
2023-03-19T04:06:56.070Z,4.91
2023-03-19T04:09:25.375Z,4.90
2023-03-19T04:11:53.281Z,4.86
2023-03-19T04:14:21.194Z,4.83
2023-03-19T04:16:49.452Z,4.78
2023-03-19T04:19:17.392Z,4.72
2023-03-19T04:21:45.721Z,4.53
2023-03-19T04:24:14.301Z,4.43
2023-03-19T04:26:43.596Z,4.67
2023-03-19T04:29:11.722Z,4.72
2023-03-19T04:31:39.584Z,4.62
2023-03-19T04:34:07.716Z,4.54
2023-03-19T04:36:35.621Z,4.62
2023-03-19T04:39:03.522Z,4.60
2023-03-19T04:41:31.510Z,4.65
2023-03-19T04:44:01.229Z,4.75
2023-03-19T04:46:29.415Z,4.83
2023-03-19T04:48:57.398Z,4.93
2023-03-19T04:51:25.308Z,4.92
2023-03-19T04:53:53.241Z,4.90
2023-03-19T04:56:21.143Z,5.02
2023-03-19T04:58:49.136Z,5.10
2023-03-19T05:01:18.474Z,5.15
2023-03-19T05:03:46.666Z,5.24
2023-03-19T05:06:14.606Z,5.31
2023-03-19T05:08:42.522Z,5.39
2023-03-19T05:11:10.568Z,5.52
2023-03-19T05:13:38.461Z,5.59
2023-03-19T05:16:06.884Z,5.66
2023-03-19T05:18:40.078Z,5.75
2023-03-19T05:21:11.662Z,5.76
2023-03-19T05:23:39.707Z,5.86
2023-03-19T05:26:08.566Z,6.03
2023-03-19T05:28:36.809Z,5.91
2023-03-19T05:31:05.864Z,6.23
2023-03-19T05:33:33.819Z,6.34
2023-03-19T05:36:03.217Z,6.30
2023-03-19T05:38:31.127Z,6.45
2023-03-19T05:41:04.222Z,6.54
2023-03-19T05:43:32.655Z,6.76
2023-03-19T05:46:00.845Z,6.92
2023-03-19T05:48:28.901Z,7.04
2023-03-19T05:50:56.851Z,7.15
2023-03-19T05:53:26.271Z,7.30
2023-03-19T05:55:54.181Z,7.45
2023-03-19T05:58:22.094Z,7.56
2023-03-19T06:00:51.061Z,7.74
2023-03-19T06:03:18.987Z,7.82
2023-03-19T06:05:50.200Z,7.95
2023-03-19T06:08:18.266Z,8.01
2023-03-19T06:10:47.841Z,8.10
2023-03-19T06:13:15.966Z,8.18
2023-03-19T06:15:43.936Z,8.31
2023-03-19T06:18:11.914Z,8.39
2023-03-19T06:20:39.806Z,8.48
2023-03-19T06:23:07.698Z,8.63
2023-03-19T06:25:36.004Z,8.51
2023-03-19T06:28:05.613Z,8.92
2023-03-19T06:30:34.628Z,8.95
2023-03-19T06:33:02.701Z,9.01
2023-03-19T06:35:30.896Z,8.88
2023-03-19T06:37:58.834Z,8.99
2023-03-19T06:40:26.775Z,9.10
2023-03-19T06:42:54.783Z,9.08
2023-03-19T06:45:24.103Z,9.02
2023-03-19T06:47:53.556Z,8.91
2023-03-19T06:50:21.573Z,8.94
2023-03-19T06:52:49.460Z,8.91
2023-03-19T06:55:17.887Z,8.88
2023-03-19T06:57:49.893Z,9.12
2023-03-19T07:00:19.363Z,9.23
2023-03-19T07:02:48.831Z,9.38
2023-03-19T07:05:16.856Z,9.40
2023-03-19T07:07:44.756Z,9.49
2023-03-19T07:10:12.790Z,9.57
2023-03-19T07:12:40.718Z,9.51
2023-03-19T07:15:09.493Z,9.49
2023-03-19T07:17:37.430Z,9.67
2023-03-19T07:20:08.268Z,9.84
2023-03-19T07:22:36.180Z,9.79
2023-03-19T07:25:04.143Z,10.00
2023-03-19T07:27:32.065Z,10.27
2023-03-19T07:30:00.102Z,10.57
2023-03-19T07:32:28.050Z,10.46
2023-03-19T07:34:56.252Z,10.19
2023-03-19T07:37:25.607Z,10.25
2023-03-19T07:39:53.498Z,10.49
2023-03-19T07:42:21.395Z,10.21
2023-03-19T07:44:49.309Z,9.81
2023-03-19T07:47:28.474Z,10.04
2023-03-19T07:49:58.347Z,9.96
2023-03-19T07:52:28.136Z,10.03
2023-03-19T07:54:56.058Z,10.31
2023-03-19T07:57:25.523Z,10.54
2023-03-19T07:59:53.544Z,10.65
2023-03-19T08:02:23.471Z,11.00
2023-03-19T08:04:51.719Z,11.38
2023-03-19T08:07:20.266Z,11.76
2023-03-19T08:09:49.632Z,11.48
2023-03-19T08:12:17.533Z,11.49
2023-03-19T08:14:45.483Z,11.64
2023-03-19T08:17:13.489Z,11.58
2023-03-19T08:19:41.403Z,11.66
2023-03-19T08:22:09.814Z,11.82
2023-03-19T08:24:37.726Z,11.47
2023-03-19T08:27:08.213Z,11.61
2023-03-19T08:29:36.676Z,11.51
2023-03-19T08:32:04.786Z,11.76
2023-03-19T08:34:33.634Z,11.64
2023-03-19T08:37:01.542Z,12.01
2023-03-19T08:39:29.517Z,11.77
2023-03-19T08:41:57.724Z,11.68
2023-03-19T08:44:27.019Z,11.38
2023-03-19T08:46:54.911Z,11.95
2023-03-19T08:49:22.831Z,11.92
2023-03-19T08:51:50.897Z,12.14
2023-03-19T08:54:21.304Z,12.46
2023-03-19T08:56:50.484Z,12.80
2023-03-19T08:59:18.640Z,13.00
2023-03-19T09:01:52.145Z,13.42
2023-03-19T09:04:20.551Z,13.74
2023-03-19T09:06:51.211Z,14.01
2023-03-19T09:09:19.800Z,13.39
2023-03-19T09:11:47.710Z,12.19
2023-03-19T09:14:16.692Z,12.37
2023-03-19T09:16:45.161Z,11.90
2023-03-19T09:19:14.514Z,12.27
2023-03-19T09:21:43.130Z,12.25
2023-03-19T09:24:11.076Z,12.76
2023-03-19T09:26:39.029Z,12.94
2023-03-19T09:29:07.167Z,13.10
2023-03-19T09:31:35.140Z,13.43
2023-03-19T09:34:03.133Z,13.22
2023-03-19T09:36:32.411Z,13.12
2023-03-19T09:39:00.427Z,12.95
2023-03-19T09:41:34.384Z,12.48
2023-03-19T09:44:04.600Z,12.81
2023-03-19T09:46:39.888Z,12.87
2023-03-19T09:49:17.889Z,13.35
2023-03-19T09:51:51.664Z,13.03
2023-03-19T09:54:41.021Z,13.02
2023-03-19T09:57:12.736Z,13.24
2023-03-19T09:59:42.574Z,13.37
2023-03-19T10:02:30.924Z,13.27
2023-03-19T10:05:10.893Z,13.32
2023-03-19T10:08:17.395Z,12.91
2023-03-19T10:10:52.513Z,12.74
2023-03-19T10:13:37.910Z,12.92
2023-03-19T10:16:07.292Z,13.34
2023-03-19T10:18:39.495Z,13.06
2023-03-19T10:21:12.466Z,13.41
2023-03-19T10:23:46.877Z,13.22
2023-03-19T10:26:18.273Z,13.18
2023-03-19T10:28:55.020Z,13.36
2023-03-19T10:31:27.707Z,13.23
2023-03-19T10:34:07.484Z,13.81
2023-03-19T10:36:37.696Z,14.52
2023-03-19T10:39:07.906Z,14.49
2023-03-19T10:41:48.473Z,14.55
2023-03-19T10:44:28.957Z,13.83
2023-03-19T10:46:59.964Z,13.85
2023-03-19T10:49:27.878Z,14.04
2023-03-19T10:51:59.479Z,14.18
2023-03-19T10:54:29.117Z,14.28
2023-03-19T10:57:00.257Z,14.62
2023-03-19T10:59:34.131Z,14.67
2023-03-19T11:02:04.591Z,14.88
2023-03-19T11:04:32.664Z,14.52
2023-03-19T11:07:10.524Z,14.08
2023-03-19T11:09:40.029Z,14.00
2023-03-19T11:12:19.405Z,14.30
2023-03-19T11:14:49.199Z,14.72
2023-03-19T11:17:25.833Z,14.88
2023-03-19T11:19:55.160Z,14.74
2023-03-19T11:22:25.154Z,14.84
2023-03-19T11:24:55.775Z,14.88
2023-03-19T11:27:34.975Z,15.18
2023-03-19T11:30:04.073Z,15.50
2023-03-19T11:32:54.691Z,15.89
2023-03-19T11:35:28.890Z,15.50
2023-03-19T11:37:58.513Z,15.32
2023-03-19T11:40:37.486Z,15.02
2023-03-19T11:43:41.991Z,14.84
2023-03-19T11:46:21.510Z,15.15
2023-03-19T11:49:25.850Z,15.61
2023-03-19T11:52:00.958Z,15.93
2023-03-19T11:54:40.238Z,16.22
2023-03-19T11:57:13.262Z,15.84
2023-03-19T11:59:59.388Z,15.85
2023-03-19T12:02:44.541Z,15.87
2023-03-19T12:05:22.232Z,15.48
2023-03-19T12:08:01.207Z,15.38
2023-03-19T12:10:36.576Z,15.05
2023-03-19T12:13:17.993Z,14.75
2023-03-19T12:15:56.679Z,14.53
2023-03-19T12:18:44.673Z,15.00
2023-03-19T12:21:19.373Z,14.89
2023-03-19T12:24:03.883Z,14.74
2023-03-19T12:26:40.858Z,14.74
2023-03-19T12:29:18.874Z,15.13
2023-03-19T12:32:13.826Z,14.63
2023-03-19T12:34:45.343Z,14.54
2023-03-19T12:37:23.697Z,14.92
2023-03-19T12:40:06.889Z,14.86
2023-03-19T12:42:39.671Z,14.83
2023-03-19T12:45:21.016Z,15.10
2023-03-19T12:47:51.882Z,15.25
2023-03-19T12:50:21.679Z,15.08
2023-03-19T12:52:52.671Z,14.47
2023-03-19T12:55:23.405Z,14.25
2023-03-19T12:57:53.464Z,14.19
2023-03-19T13:00:28.665Z,14.39
2023-03-19T13:03:06.392Z,14.60
2023-03-19T13:05:40.528Z,14.91
2023-03-19T13:08:17.028Z,15.12
2023-03-19T13:10:44.989Z,15.29
2023-03-19T13:13:29.828Z,15.44
2023-03-19T13:16:01.864Z,15.51
2023-03-19T13:18:39.536Z,15.61
2023-03-19T13:21:24.693Z,15.49
2023-03-19T13:24:05.164Z,15.57
2023-03-19T13:26:35.133Z,15.48
2023-03-19T13:29:09.181Z,14.55
2023-03-19T13:31:37.580Z,14.50
2023-03-19T13:34:19.116Z,14.56
2023-03-19T13:36:53.007Z,14.81
2023-03-19T13:39:26.222Z,14.40
2023-03-19T13:41:59.878Z,14.28
2023-03-19T13:44:37.047Z,14.66
2023-03-19T13:47:42.457Z,14.77
2023-03-19T13:50:50.413Z,14.95
2023-03-19T13:53:34.419Z,15.02
2023-03-19T13:56:16.013Z,14.97
2023-03-19T13:59:14.877Z,14.85
2023-03-19T14:01:45.762Z,14.87
2023-03-19T14:04:20.114Z,15.00
2023-03-19T14:06:51.861Z,15.02
2023-03-19T14:09:50.827Z,14.95
2023-03-19T14:12:33.799Z,14.98
2023-03-19T14:15:06.001Z,14.78
2023-03-19T14:17:36.610Z,14.68
2023-03-19T14:20:32.826Z,14.64
2023-03-19T14:23:23.609Z,14.75
2023-03-19T14:26:07.028Z,14.53
2023-03-19T14:28:54.845Z,14.72
2023-03-19T14:31:28.564Z,14.64
2023-03-19T14:34:20.634Z,14.66
2023-03-19T14:36:54.015Z,14.55
2023-03-19T14:39:26.820Z,14.70
2023-03-19T14:42:02.444Z,14.64
2023-03-19T14:45:16.078Z,14.67
2023-03-19T14:48:03.141Z,14.60
2023-03-19T14:51:12.278Z,14.66
2023-03-19T14:53:43.318Z,14.55
2023-03-19T14:56:16.447Z,14.48
2023-03-19T14:58:52.052Z,14.61
2023-03-19T15:01:20.835Z,14.62
2023-03-19T15:03:55.574Z,14.48
2023-03-19T15:06:24.246Z,14.44
2023-03-19T15:08:52.786Z,14.39
2023-03-19T15:11:40.702Z,14.17
2023-03-19T15:14:26.097Z,14.22
2023-03-19T15:17:01.492Z,14.20
2023-03-19T15:19:32.592Z,14.22
2023-03-19T15:22:12.928Z,14.19
2023-03-19T15:24:40.916Z,14.16
2023-03-19T15:27:24.013Z,14.19
2023-03-19T15:29:53.685Z,14.10
2023-03-19T15:35:27.607Z,13.92
2023-03-19T15:38:00.820Z,13.71
2023-03-19T15:40:31.650Z,13.75
2023-03-19T15:43:03.532Z,13.61
2023-03-19T15:45:34.832Z,13.51
2023-03-19T15:48:07.028Z,13.51
2023-03-19T15:50:37.236Z,13.38
2023-03-19T15:53:09.445Z,13.32
2023-03-19T15:55:38.177Z,13.37
2023-03-19T15:58:10.951Z,13.35
2023-03-19T16:00:41.358Z,13.31
2023-03-19T16:03:17.216Z,13.32
2023-03-19T16:05:45.234Z,13.20
2023-03-19T16:08:27.326Z,13.16
2023-03-19T16:10:55.428Z,13.07
2023-03-19T16:13:33.395Z,13.00
2023-03-19T16:16:08.706Z,12.97
2023-03-19T16:18:45.644Z,12.73
2023-03-19T16:21:17.902Z,12.75
2023-03-19T16:23:51.399Z,12.74
2023-03-19T16:26:25.448Z,12.63
2023-03-19T16:29:13.988Z,12.55
2023-03-19T16:31:47.000Z,12.38
2023-03-19T16:34:32.707Z,12.32
2023-03-19T16:37:01.113Z,12.29
2023-03-19T16:39:35.007Z,12.26
2023-03-19T16:42:27.101Z,12.16
2023-03-19T16:44:55.171Z,12.03
2023-03-19T16:47:24.849Z,11.91
2023-03-19T16:49:52.775Z,11.81
2023-03-19T16:52:23.495Z,11.66
2023-03-19T16:54:52.877Z,11.54
2023-03-19T16:57:21.100Z,11.43
2023-03-19T16:59:49.505Z,11.32
2023-03-19T17:02:19.080Z,11.22
2023-03-19T17:04:48.674Z,11.20
2023-03-19T17:07:16.622Z,11.22
2023-03-19T17:09:44.545Z,11.16
2023-03-19T17:12:16.265Z,11.06
2023-03-19T17:14:44.628Z,10.93
2023-03-19T17:17:18.904Z,10.81
2023-03-19T17:19:48.815Z,10.72
2023-03-19T17:22:16.798Z,10.65
2023-03-19T17:24:45.036Z,10.55
2023-03-19T17:27:12.968Z,10.50
2023-03-19T17:29:40.858Z,10.45
2023-03-19T17:32:17.563Z,10.35
2023-03-19T17:34:45.994Z,10.31
2023-03-19T17:37:15.523Z,10.22
2023-03-19T17:39:45.855Z,10.19
2023-03-19T17:42:19.938Z,10.12
2023-03-19T17:44:47.931Z,10.11
2023-03-19T17:47:17.170Z,10.00
2023-03-19T17:49:45.672Z,9.86
2023-03-19T17:52:17.674Z,9.73
2023-03-19T17:54:46.153Z,9.66
2023-03-19T17:57:15.616Z,9.57
2023-03-19T17:59:43.578Z,9.50
2023-03-19T18:02:24.928Z,9.43
2023-03-19T18:04:52.954Z,9.41
2023-03-19T18:07:22.269Z,9.35
2023-03-19T18:09:50.364Z,9.34
2023-03-19T18:12:18.352Z,9.30
2023-03-19T18:14:46.355Z,9.25
2023-03-19T18:17:17.564Z,9.24
2023-03-19T18:19:47.642Z,9.17
2023-03-19T18:22:17.188Z,8.96
2023-03-19T18:24:46.511Z,9.06
2023-03-19T18:27:14.717Z,9.09
2023-03-19T18:29:42.670Z,8.95
2023-03-19T18:32:17.245Z,9.07
2023-03-19T18:34:45.398Z,9.11
2023-03-19T18:37:17.424Z,9.01
2023-03-19T18:39:47.064Z,8.63
2023-03-19T18:42:15.529Z,8.42
2023-03-19T18:44:43.517Z,8.53
2023-03-19T18:47:15.587Z,8.25
2023-03-19T18:49:43.852Z,8.04
2023-03-19T18:52:18.604Z,8.18
2023-03-19T18:54:48.759Z,8.28
2023-03-19T18:57:17.705Z,8.03
2023-03-19T18:59:45.793Z,7.61
2023-03-19T19:02:25.963Z,7.11
2023-03-19T19:04:53.865Z,7.22
2023-03-19T19:07:21.834Z,7.44
2023-03-19T19:09:51.286Z,7.55
2023-03-19T19:12:19.895Z,7.81
2023-03-19T19:14:48.664Z,7.86
2023-03-19T19:17:18.600Z,7.95
2023-03-19T19:19:46.847Z,7.99
2023-03-19T19:22:17.051Z,7.91
2023-03-19T19:24:45.477Z,7.68
2023-03-19T19:27:18.957Z,7.68
2023-03-19T19:29:47.631Z,7.41
2023-03-19T19:32:20.787Z,7.40
2023-03-19T19:34:48.713Z,7.26
2023-03-19T19:37:18.877Z,7.27
2023-03-19T19:39:47.011Z,7.18
2023-03-19T19:42:16.948Z,7.05
2023-03-19T19:44:51.756Z,7.40
2023-03-19T19:47:19.988Z,7.50
2023-03-19T19:49:47.955Z,7.48
2023-03-19T19:52:18.401Z,7.46
2023-03-19T19:54:46.774Z,7.48
2023-03-19T19:57:21.404Z,7.52
2023-03-19T19:59:52.219Z,7.43
2023-03-19T20:02:24.290Z,7.38
2023-03-19T20:04:52.491Z,7.47
2023-03-19T20:07:20.659Z,7.59
2023-03-19T20:09:48.851Z,7.58
2023-03-19T20:12:21.488Z,7.63
2023-03-19T20:14:51.639Z,7.61
2023-03-19T20:17:21.529Z,7.56
2023-03-19T20:19:50.031Z,7.54
2023-03-19T20:22:18.187Z,7.49
2023-03-19T20:24:49.556Z,7.52
2023-03-19T20:27:21.697Z,7.51
2023-03-19T20:29:53.742Z,7.49
2023-03-19T20:32:28.868Z,7.59
2023-03-19T20:34:57.031Z,7.52
2023-03-19T20:37:25.029Z,7.60
2023-03-19T20:39:52.937Z,7.57
2023-03-19T20:42:21.328Z,7.47
2023-03-19T20:44:53.608Z,7.38
2023-03-19T20:47:22.643Z,7.34
2023-03-19T20:49:50.655Z,7.26
2023-03-19T20:52:18.596Z,7.28
2023-03-19T20:54:46.874Z,7.30
2023-03-19T20:57:16.739Z,7.30
2023-03-19T20:59:46.975Z,7.37
2023-03-19T21:02:22.021Z,7.33
2023-03-19T21:04:50.360Z,7.16
2023-03-19T21:07:28.764Z,7.23
2023-03-19T21:09:57.272Z,7.20
2023-03-19T21:12:30.332Z,7.07
2023-03-19T21:14:58.830Z,6.97
2023-03-19T21:17:29.143Z,7.00
2023-03-19T21:19:57.413Z,6.92
2023-03-19T21:22:28.551Z,6.89
2023-03-19T21:25:03.360Z,6.85
2023-03-19T21:27:32.796Z,6.70
2023-03-19T21:30:01.031Z,6.61
2023-03-19T21:32:30.362Z,6.63
2023-03-19T21:34:58.836Z,6.64
2023-03-19T21:37:26.771Z,6.61
2023-03-19T21:39:54.678Z,6.53
2023-03-19T21:42:24.147Z,6.55
2023-03-19T21:44:59.258Z,6.53
2023-03-19T21:47:27.249Z,6.57
2023-03-19T21:49:57.590Z,6.66
2023-03-19T21:52:25.504Z,6.74
2023-03-19T21:54:53.850Z,6.55
2023-03-19T21:57:21.796Z,6.60
2023-03-19T21:59:49.744Z,6.63
2023-03-19T22:02:39.917Z,6.52
2023-03-19T22:05:21.983Z,6.54
2023-03-19T22:07:50.180Z,6.50
2023-03-19T22:10:18.867Z,6.28
2023-03-19T22:12:47.581Z,6.31
2023-03-19T22:15:26.993Z,6.28
2023-03-19T22:17:54.939Z,6.09
2023-03-19T22:20:26.465Z,6.09
2023-03-19T22:22:55.538Z,6.04
2023-03-19T22:25:24.141Z,6.12
2023-03-19T22:27:52.546Z,6.27
2023-03-19T22:30:24.621Z,6.19
2023-03-19T22:32:54.673Z,6.20
2023-03-19T22:35:24.357Z,6.12
2023-03-19T22:37:52.519Z,6.30
2023-03-19T22:40:20.752Z,6.30
2023-03-19T22:42:50.008Z,6.34
2023-03-19T22:45:26.627Z,6.39
2023-03-19T22:47:55.416Z,6.43
2023-03-19T22:50:27.528Z,6.43
2023-03-19T22:52:55.965Z,6.51
2023-03-19T22:55:24.221Z,6.62
2023-03-19T22:57:52.389Z,6.72
2023-03-19T23:00:23.871Z,6.46
2023-03-19T23:02:57.457Z,6.53
2023-03-19T23:05:35.306Z,6.53
2023-03-19T23:08:06.534Z,6.45
2023-03-19T23:10:35.979Z,6.48
2023-03-19T23:13:04.073Z,6.53
2023-03-19T23:15:32.947Z,6.57
2023-03-19T23:18:01.425Z,6.67
2023-03-19T23:20:34.014Z,6.39
2023-03-19T23:23:02.289Z,6.34
2023-03-19T23:25:31.415Z,6.55
2023-03-19T23:28:02.737Z,6.45
2023-03-19T23:30:32.685Z,6.48
2023-03-19T23:33:02.746Z,6.33
2023-03-19T23:35:35.387Z,6.34
2023-03-19T23:38:04.185Z,6.55
2023-03-19T23:40:34.303Z,6.52
2023-03-19T23:43:03.702Z,6.55
2023-03-19T23:45:38.346Z,6.32
2023-03-19T23:48:08.775Z,6.14
2023-03-19T23:50:38.100Z,6.22
2023-03-19T23:53:06.167Z,5.95
2023-03-19T23:55:35.104Z,5.93
2023-03-19T23:58:03.732Z,5.88
